createdAt,value
2019-04-23T00:00:56.137Z,12.67
2019-04-23T00:03:23.386Z,12.17
2019-04-23T00:06:00.067Z,12.80
2019-04-23T00:08:42.196Z,12.37
2019-04-23T00:10:58.862Z,12.10
2019-04-23T00:13:21.338Z,12.53
2019-04-23T00:16:08.915Z,12.40
2019-04-23T00:18:32.333Z,12.70
2019-04-23T00:20:57.846Z,13.10
2019-04-23T00:23:25.537Z,14.00
2019-04-23T00:26:14.761Z,13.00
2019-04-23T00:28:45.670Z,14.17
2019-04-23T00:31:13.374Z,13.20
2019-04-23T00:33:36.091Z,13.00
2019-04-23T00:36:10.698Z,14.00
2019-04-23T00:38:40.228Z,14.00
2019-04-23T00:41:09.323Z,13.07
2019-04-23T00:43:54.544Z,13.47
2019-04-23T00:46:11.448Z,13.00
2019-04-23T00:48:45.388Z,13.40
2019-04-23T00:51:03.444Z,13.90
2019-04-23T00:53:35.108Z,13.87
2019-04-23T00:56:26.958Z,13.93
2019-04-23T01:01:06.002Z,14.10
2019-04-23T01:03:33.825Z,13.20
2019-04-23T01:06:08.214Z,13.13
2019-04-23T01:08:36.880Z,13.93
2019-04-23T01:16:11.263Z,14.20
2019-04-23T01:18:46.894Z,13.23
2019-04-23T01:20:54.376Z,13.03
2019-04-23T01:23:32.012Z,14.40
2019-04-23T01:26:08.217Z,13.60
2019-04-23T01:28:55.991Z,13.57
2019-04-23T01:31:24.393Z,13.07
2019-04-23T01:33:53.332Z,14.30
2019-04-23T01:36:30.824Z,14.00
2019-04-23T01:38:53.503Z,14.17
2019-04-23T01:41:24.094Z,13.70
2019-04-23T01:44:04.191Z,13.50
2019-04-23T01:46:27.333Z,13.43
2019-04-23T01:48:51.976Z,14.50
2019-04-23T01:51:26.266Z,14.37
2019-04-23T01:53:54.991Z,13.73
2019-04-23T01:58:53.630Z,14.23
2019-04-23T02:01:25.292Z,13.90
2019-04-23T02:03:54.376Z,14.50
2019-04-23T02:06:20.553Z,13.63
2019-04-23T02:08:56.915Z,13.50
2019-04-23T02:11:16.431Z,14.13
2019-04-23T02:13:56.779Z,14.17
2019-04-23T02:16:21.449Z,13.90
2019-04-23T02:18:59.564Z,14.70
2019-04-23T02:21:24.008Z,14.43
2019-04-23T02:24:05.039Z,13.73
2019-04-23T02:31:44.986Z,14.10
2019-04-23T02:34:12.129Z,13.17
2019-04-23T02:36:26.525Z,14.30
2019-04-23T02:41:35.222Z,14.40
2019-04-23T02:44:04.959Z,14.00
2019-04-23T02:46:15.216Z,14.23
2019-04-23T02:51:38.992Z,14.77
2019-04-23T02:54:04.590Z,16.20
2019-04-23T02:56:47.130Z,14.83
2019-04-23T02:59:05.829Z,13.47
2019-04-23T03:01:27.459Z,13.70
2019-04-23T03:04:01.505Z,14.57
2019-04-23T03:06:33.685Z,14.27
2019-04-23T03:08:49.265Z,15.50
2019-04-23T03:14:03.474Z,14.83
2019-04-23T03:16:52.806Z,14.47
2019-04-23T03:19:10.748Z,15.37
2019-04-23T03:29:49.098Z,14.00
2019-04-23T03:32:51.921Z,14.83
2019-04-23T03:37:34.065Z,15.03
2019-04-23T03:39:56.686Z,14.00
2019-04-23T03:42:17.624Z,14.50
2019-04-23T03:44:52.712Z,14.53
2019-04-23T03:47:18.361Z,14.63
2019-04-23T03:49:48.658Z,15.23
2019-04-23T03:55:01.217Z,14.90
2019-04-23T03:59:47.095Z,13.47
2019-04-23T04:04:49.517Z,14.47
2019-04-23T04:07:18.557Z,13.10
2019-04-23T04:09:47.714Z,14.87
2019-04-23T04:12:29.336Z,14.70
2019-04-23T04:17:17.909Z,13.60
2019-04-23T04:19:47.051Z,14.53
2019-04-23T04:22:21.511Z,13.30
2019-04-23T04:24:40.211Z,13.00
2019-04-23T04:32:31.635Z,13.00
2019-04-23T04:35:06.913Z,13.10
2019-04-23T04:42:10.393Z,11.85
2019-04-23T04:47:09.842Z,12.80
2019-04-23T04:49:50.899Z,12.97
2019-04-23T04:54:24.576Z,13.27
2019-04-23T04:59:50.947Z,12.43
2019-04-23T05:04:46.313Z,12.70
2019-04-23T05:07:11.478Z,13.43
2019-04-23T05:09:47.721Z,11.53
2019-04-23T05:12:18.359Z,12.30
2019-04-23T05:14:56.913Z,12.30
2019-04-23T05:19:43.097Z,11.67
2019-04-23T05:27:11.005Z,12.07
2019-04-23T05:29:37.715Z,12.93
2019-04-23T05:32:10.127Z,12.60
2019-04-23T05:37:04.976Z,12.50
2019-04-23T05:42:05.708Z,11.60
2019-04-23T05:44:41.412Z,11.90
2019-04-23T05:49:37.886Z,12.23
2019-04-23T05:52:09.473Z,11.50
2019-04-23T05:54:43.328Z,11.87
2019-04-23T05:57:20.655Z,11.37
2019-04-23T05:59:39.729Z,11.37
2019-04-23T06:02:20.407Z,11.77
2019-04-23T06:04:40.470Z,10.73
2019-04-23T06:07:22.128Z,11.80
2019-04-23T06:09:52.077Z,12.20
2019-04-23T06:14:53.710Z,11.30
2019-04-23T06:19:32.949Z,10.90
2019-04-23T06:24:39.802Z,11.67
2019-04-23T06:27:06.718Z,10.97
2019-04-23T06:32:02.774Z,10.70
2019-04-23T06:34:39.731Z,11.00
2019-04-23T06:37:04.992Z,10.70
2019-04-23T06:39:42.205Z,11.30
2019-04-23T06:42:19.430Z,10.50
2019-04-23T06:44:45.400Z,10.97
2019-04-23T06:47:13.050Z,10.43
2019-04-23T06:52:20.194Z,10.10
2019-04-23T06:54:51.313Z,10.97
2019-04-23T07:00:02.321Z,10.40
2019-04-23T07:04:49.917Z,10.37
2019-04-23T07:07:42.671Z,10.20
2019-04-23T07:09:44.036Z,9.30
2019-04-23T07:12:20.415Z,9.90
2019-04-23T07:14:49.321Z,9.57
2019-04-23T07:17:21.179Z,10.17
2019-04-23T07:22:17.613Z,9.27
2019-04-23T07:24:49.154Z,9.90
2019-04-23T07:27:13.556Z,9.90
2019-04-23T07:29:45.758Z,9.87
2019-04-23T07:32:10.808Z,9.53
2019-04-23T07:34:49.502Z,10.30
2019-04-23T07:37:15.599Z,9.70
2019-04-23T07:39:58.885Z,9.40
2019-04-23T07:42:34.434Z,9.03
2019-04-23T07:45:10.514Z,9.83
2019-04-23T07:48:06.820Z,9.30
2019-04-23T07:50:43.849Z,9.10
2019-04-23T07:53:07.113Z,8.80
2019-04-23T07:55:41.414Z,9.17
2019-04-23T08:00:35.362Z,9.33
2019-04-23T08:03:08.726Z,9.67
2019-04-23T08:05:26.792Z,9.10
2019-04-23T08:07:55.761Z,9.20
2019-04-23T08:10:34.376Z,8.67
2019-04-23T08:13:00.919Z,8.80
2019-04-23T08:15:28.063Z,9.50
2019-04-23T08:17:58.639Z,9.97
2019-04-23T08:20:32.301Z,8.70
2019-04-23T08:23:03.913Z,8.53
2019-04-23T08:25:47.343Z,9.00
2019-04-23T08:28:13.542Z,7.93
2019-04-23T08:30:48.935Z,8.70
2019-04-23T08:33:12.776Z,8.60
2019-04-23T08:35:45.379Z,8.67
2019-04-23T08:38:21.152Z,8.23
2019-04-23T08:40:47.276Z,8.95
2019-04-23T08:45:59.576Z,8.60
2019-04-23T08:48:34.096Z,8.50
2019-04-23T08:51:19.633Z,8.27
2019-04-23T08:53:35.398Z,8.50
2019-04-23T08:56:15.503Z,8.20
2019-04-23T08:58:32.188Z,8.33
2019-04-23T09:03:32.865Z,8.27
2019-04-23T09:11:04.419Z,8.53
2019-04-23T09:18:26.343Z,8.10
2019-04-23T09:20:55.056Z,7.93
2019-04-23T09:23:49.355Z,8.30
2019-04-23T09:25:59.202Z,8.67
2019-04-23T09:31:11.460Z,8.27
2019-04-23T09:33:46.942Z,8.00
2019-04-23T09:39:00.387Z,7.37
2019-04-23T09:44:09.416Z,7.73
2019-04-23T09:46:36.406Z,7.50
2019-04-23T09:49:16.190Z,7.90
2019-04-23T09:54:28.215Z,8.10
2019-04-23T09:56:41.224Z,8.60
2019-04-23T09:59:20.863Z,8.43
2019-04-23T10:01:29.036Z,8.13
2019-04-23T10:03:57.059Z,8.43
2019-04-23T10:06:22.519Z,9.03
2019-04-23T10:08:49.431Z,8.70
2019-04-23T10:11:13.815Z,7.47
2019-04-23T10:13:42.857Z,8.10
2019-04-23T10:16:15.201Z,8.43
2019-04-23T10:18:41.484Z,8.50
2019-04-23T10:21:11.085Z,7.33
2019-04-23T10:23:41.139Z,8.50
2019-04-23T10:26:10.109Z,8.30
2019-04-23T10:28:44.227Z,7.63
2019-04-23T10:31:12.757Z,7.90
2019-04-23T10:33:42.171Z,7.80
2019-04-23T10:36:13.679Z,8.10
2019-04-23T10:38:41.578Z,7.77
2019-04-23T10:41:10.172Z,8.10
2019-04-23T10:43:41.774Z,8.07
2019-04-23T10:46:29.674Z,8.40
2019-04-23T10:51:41.315Z,8.27
2019-04-23T10:59:30.120Z,8.07
2019-04-23T11:01:53.066Z,8.30
2019-04-23T11:04:38.803Z,7.80
2019-04-23T11:06:50.270Z,8.53
2019-04-23T11:12:07.886Z,7.87
2019-04-23T11:14:32.147Z,8.63
2019-04-23T11:19:34.682Z,9.00
2019-04-23T11:22:04.071Z,8.90
2019-04-23T11:24:38.048Z,8.37
2019-04-23T11:26:57.950Z,9.53
2019-04-23T11:29:33.835Z,8.23
2019-04-23T11:32:29.301Z,8.63
2019-04-23T11:34:50.356Z,8.40
2019-04-23T11:37:01.740Z,7.80
2019-04-23T11:39:32.519Z,8.33
2019-04-23T11:41:57.891Z,9.40
2019-04-23T11:44:39.203Z,7.97
2019-04-23T11:47:07.782Z,8.10
2019-04-23T11:52:00.151Z,7.80
2019-04-23T11:54:24.144Z,8.27
2019-04-23T12:02:12.069Z,9.23
2019-04-23T12:07:14.821Z,7.87
2019-04-23T12:09:55.089Z,7.50
2019-04-23T12:12:11.258Z,8.07
2019-04-23T12:17:25.997Z,7.97
2019-04-23T12:22:26.995Z,9.30
2019-04-23T12:27:23.515Z,8.13
2019-04-23T12:29:57.563Z,8.80
2019-04-23T12:35:01.335Z,9.17
2019-04-23T12:40:15.691Z,8.07
2019-04-23T12:45:18.476Z,10.20
2019-04-23T12:50:42.221Z,9.23
2019-04-23T12:52:41.420Z,8.47
2019-04-23T12:55:15.036Z,9.33
2019-04-23T13:00:07.183Z,9.47
2019-04-23T13:02:45.194Z,9.67
2019-04-23T13:05:12.742Z,8.70
2019-04-23T13:10:10.314Z,8.50
2019-04-23T13:12:46.650Z,9.10
2019-04-23T13:15:13.643Z,9.70
2019-04-23T13:17:50.352Z,9.30
2019-04-23T13:25:20.221Z,9.00
2019-04-23T13:27:57.275Z,9.50
2019-04-23T13:30:23.234Z,8.50
2019-04-23T13:32:55.917Z,9.40
2019-04-23T13:35:43.603Z,9.10
2019-04-23T13:37:54.799Z,9.00
2019-04-23T13:40:24.716Z,9.40
2019-04-23T13:42:55.152Z,10.27
2019-04-23T13:45:33.332Z,9.43
2019-04-23T13:47:54.072Z,9.30
2019-04-23T13:50:33.278Z,9.80
2019-04-23T13:55:26.777Z,10.47
2019-04-23T14:00:28.669Z,9.73
2019-04-23T14:05:22.481Z,9.97
2019-04-23T14:07:57.081Z,9.97
2019-04-23T14:13:08.480Z,9.87
2019-04-23T14:15:36.022Z,9.43
2019-04-23T14:18:10.768Z,10.47
2019-04-23T14:20:21.130Z,10.40
2019-04-23T14:23:03.261Z,9.70
2019-04-23T14:25:17.048Z,10.00
2019-04-23T14:28:01.326Z,10.60
2019-04-23T14:32:53.512Z,11.03
2019-04-23T14:35:28.450Z,11.27
2019-04-23T14:38:02.075Z,11.03
2019-04-23T14:40:29.364Z,10.60
2019-04-23T14:42:56.788Z,10.97
2019-04-23T14:45:32.661Z,11.57
2019-04-23T14:48:00.948Z,11.63
2019-04-23T14:52:56.899Z,11.10
2019-04-23T14:58:10.488Z,11.27
2019-04-23T15:05:52.412Z,11.57
2019-04-23T15:07:58.015Z,11.00
2019-04-23T15:10:34.560Z,11.50
2019-04-23T15:13:01.842Z,12.00
2019-04-23T15:15:23.961Z,10.90
2019-04-23T15:17:56.041Z,12.47
2019-04-23T15:20:53.240Z,12.77
2019-04-23T15:23:19.686Z,12.60
2019-04-23T15:28:07.022Z,11.70
2019-04-23T15:30:21.620Z,12.10
2019-04-23T15:33:22.342Z,11.80
2019-04-23T15:35:40.905Z,11.37
2019-04-23T15:40:25.146Z,12.10
2019-04-23T15:43:04.285Z,12.57
2019-04-23T15:45:34.991Z,11.83
2019-04-23T15:50:28.329Z,11.37
2019-04-23T15:55:27.578Z,11.90
2019-04-23T16:00:24.956Z,12.20
2019-04-23T16:02:28.140Z,12.30
2019-04-23T16:04:57.686Z,12.40
2019-04-23T16:07:41.462Z,11.37
2019-04-23T16:12:59.789Z,12.77
2019-04-23T16:15:21.339Z,12.20
2019-04-23T16:18:04.109Z,12.90
2019-04-23T16:20:31.425Z,13.07
2019-04-23T16:22:51.278Z,12.90
2019-04-23T16:25:21.717Z,13.70
2019-04-23T16:28:00.374Z,13.40
2019-04-23T16:30:42.291Z,12.73
2019-04-23T16:35:51.114Z,13.30
2019-04-23T16:40:44.470Z,14.27
2019-04-23T16:43:18.366Z,14.07
2019-04-23T16:48:35.362Z,13.43
2019-04-23T16:51:00.714Z,14.73
2019-04-23T16:53:20.955Z,13.80
2019-04-23T16:58:25.109Z,15.17
2019-04-23T17:01:01.313Z,14.60
2019-04-23T17:06:01.294Z,15.20
2019-04-23T17:11:00.424Z,15.07
2019-04-23T17:13:21.110Z,16.67
2019-04-23T17:20:52.481Z,16.43
2019-04-23T17:28:21.662Z,17.03
2019-04-23T17:31:32.411Z,16.60
2019-04-23T17:38:49.548Z,16.93
2019-04-23T17:41:23.836Z,16.80
2019-04-23T17:44:07.736Z,17.03
2019-04-23T17:46:22.300Z,16.60
2019-04-23T17:48:47.816Z,17.60
2019-04-23T17:51:21.877Z,16.47
2019-04-23T17:53:56.189Z,16.47
2019-04-23T17:56:26.344Z,16.03
2019-04-23T17:58:49.990Z,16.40
2019-04-23T18:04:18.400Z,17.10
2019-04-23T18:09:06.075Z,15.63
2019-04-23T18:11:26.816Z,14.87
2019-04-23T18:13:57.125Z,15.60
2019-04-23T18:16:35.091Z,15.47
2019-04-23T18:19:05.796Z,15.07
2019-04-23T18:24:21.344Z,15.07
2019-04-23T18:26:51.608Z,16.47
2019-04-23T18:29:25.820Z,15.20
2019-04-23T18:31:56.219Z,14.77
2019-04-23T18:34:33.346Z,15.27
2019-04-23T18:36:53.433Z,14.70
2019-04-23T18:39:22.229Z,15.60
2019-04-23T18:42:01.922Z,15.00
2019-04-23T18:44:24.856Z,15.40
2019-04-23T18:46:49.216Z,15.33
2019-04-23T18:49:28.617Z,17.53
2019-04-23T18:51:50.602Z,15.50
2019-04-23T18:54:22.600Z,15.63
2019-04-23T18:57:04.525Z,16.20
2019-04-23T18:59:30.460Z,15.80
2019-04-23T19:02:17.929Z,15.30
2019-04-23T19:07:27.535Z,14.90
2019-04-23T19:12:48.441Z,15.07
2019-04-23T19:15:17.048Z,16.00
2019-04-23T19:17:46.430Z,15.60
2019-04-23T19:20:16.207Z,14.93
2019-04-23T19:22:38.152Z,15.20
2019-04-23T19:25:07.083Z,15.40
2019-04-23T19:27:38.883Z,14.17
2019-04-23T19:30:04.946Z,14.47
2019-04-23T19:32:43.503Z,14.47
2019-04-23T19:35:19.397Z,15.00
2019-04-23T19:37:49.400Z,13.90
2019-04-23T19:40:13.464Z,13.63
2019-04-23T19:42:44.829Z,13.30
2019-04-23T19:45:08.166Z,13.47
2019-04-23T19:47:48.045Z,14.10
2019-04-23T19:50:05.406Z,12.80
2019-04-23T19:52:57.550Z,14.20
2019-04-23T19:55:12.520Z,12.57
2019-04-23T19:57:42.695Z,12.00
2019-04-23T20:00:02.667Z,11.13
2019-04-23T20:03:01.743Z,9.90
2019-04-23T20:05:13.546Z,9.07
2019-04-23T20:07:55.402Z,9.27
2019-04-23T20:10:12.322Z,8.87
2019-04-23T20:13:01.602Z,8.80
2019-04-23T20:15:10.112Z,8.70
2019-04-23T20:17:44.513Z,9.10
2019-04-23T20:20:08.926Z,8.67
2019-04-23T20:22:47.307Z,8.60
2019-04-23T20:25:46.296Z,8.03
2019-04-23T20:27:57.461Z,8.27
2019-04-23T20:30:32.717Z,8.70
2019-04-23T20:33:38.529Z,8.37
2019-04-23T20:35:11.330Z,8.57
2019-04-23T20:38:18.766Z,9.30
2019-04-23T20:40:23.696Z,9.00
2019-04-23T20:42:52.960Z,7.83
2019-04-23T20:50:10.565Z,7.80
2019-04-23T20:52:46.599Z,7.33
2019-04-23T20:55:19.613Z,7.50
2019-04-23T20:58:07.242Z,7.90
2019-04-23T21:00:27.491Z,7.80
2019-04-23T21:03:18.281Z,7.10
2019-04-23T21:05:21.817Z,7.63
2019-04-23T21:28:17.213Z,6.10
2019-04-23T21:30:59.459Z,6.10
2019-04-23T21:33:11.703Z,5.83
2019-04-23T21:36:10.755Z,5.90
2019-04-23T21:38:52.366Z,6.03
2019-04-23T21:44:05.668Z,5.87
2019-04-23T21:46:20.461Z,6.07
2019-04-23T21:51:31.490Z,5.67
2019-04-23T21:53:51.757Z,6.10
2019-04-23T21:56:16.767Z,5.57
2019-04-23T21:58:53.053Z,5.67
2019-04-23T22:06:28.646Z,6.40
2019-04-23T22:16:29.727Z,6.30
2019-04-23T22:19:04.255Z,6.17
2019-04-23T22:24:02.765Z,6.03
2019-04-23T22:26:28.460Z,5.70
2019-04-23T22:29:03.693Z,6.13
2019-04-23T22:31:33.785Z,5.50
2019-04-23T22:34:06.254Z,5.70
2019-04-23T22:36:21.018Z,5.53
2019-04-23T22:38:59.462Z,5.47
2019-04-23T22:41:32.085Z,5.57
2019-04-23T22:44:00.577Z,5.10
2019-04-23T22:46:28.032Z,5.23
2019-04-23T22:49:14.607Z,5.00
2019-04-23T22:51:46.304Z,5.07
2019-04-23T22:54:03.729Z,4.83
2019-04-23T22:56:36.318Z,4.70
2019-04-23T23:01:53.404Z,4.27
2019-04-23T23:04:09.402Z,4.97
2019-04-23T23:11:34.492Z,4.60
2019-04-23T23:14:38.486Z,5.30
2019-04-23T23:16:42.096Z,4.70
2019-04-23T23:21:49.823Z,5.10
2019-04-23T23:26:54.502Z,4.80
2019-04-23T23:29:00.829Z,4.03
2019-04-23T23:31:37.873Z,5.00
2019-04-23T23:36:38.880Z,5.03
2019-04-23T23:39:16.020Z,4.70
2019-04-23T23:46:46.721Z,4.47
2019-04-23T23:49:03.279Z,4.83
2019-04-23T23:51:49.295Z,4.80
2019-04-23T23:56:59.922Z,5.30
